Time;durP1;ratioP1;P1;durP2;ratioP2;P2;SDS_P1;SDS_P2;PMS_P1;PMS_P2;Temp;Humidity;BMP_temperature;BMP_pressure;BME280_temperature;BME280_humidity;BME280_pressure;Samples;Min_cycle;Max_cycle;Signal;HPM_P1;HPM_P2
2022/01/31 00:00:18;;;;;;;36.03;7.88;;;;;;;1.41;99.65;100141.00;5014259;28;20025;-84
2022/01/31 00:02:46;;;;;;;33.38;6.32;;;;;;;1.42;99.43;100129.59;5017795;28;20018;-83
2022/01/31 00:05:11;;;;;;;29.33;6.65;;;;;;;1.40;99.67;100116.44;5021011;28;20030;-84
2022/01/31 00:07:37;;;;;;;32.47;7.43;;;;;;;1.43;99.60;100095.41;5020290;28;20167;-83
2022/01/31 00:10:07;;;;;;;34.20;6.72;;;;;;;1.45;99.47;100080.50;5021607;28;20056;-84
2022/01/31 00:12:43;;;;;;;33.63;7.65;;;;;;;1.47;99.43;100075.22;5024884;28;20018;-84
2022/01/31 00:15:08;;;;;;;38.38;7.13;;;;;;;1.59;98.38;100076.16;5036762;22;20428;-74
2022/01/31 00:17:34;;;;;;;32.70;6.63;;;;;;;1.62;98.45;100058.63;5015636;28;20036;-74
2022/01/31 00:19:59;;;;;;;28.50;6.25;;;;;;;1.53;98.99;100042.78;5015633;28;20034;-74
2022/01/31 00:22:24;;;;;;;24.50;5.75;;;;;;;1.49;99.46;100018.25;5014269;28;20030;-74
2022/01/31 00:24:49;;;;;;;23.58;6.63;;;;;;;1.55;98.32;99988.41;5014238;28;20036;-74
2022/01/31 00:27:15;;;;;;;27.40;6.85;;;;;;;1.56;98.06;99980.53;5015398;28;20029;-74
2022/01/31 00:29:40;;;;;;;24.65;6.57;;;;;;;1.63;97.68;99970.00;5015424;28;20030;-74
2022/01/31 00:32:06;;;;;;;33.63;7.60;;;;;;;1.64;97.74;99967.38;5015587;28;20029;-74
2022/01/31 00:34:32;;;;;;;27.60;6.78;;;;;;;1.64;97.99;99967.38;5015377;28;20025;-74
2022/01/31 00:36:58;;;;;;;28.80;7.32;;;;;;;1.69;97.68;99948.09;5015346;28;20100;-74
2022/01/31 00:39:23;;;;;;;26.15;7.50;;;;;;;1.65;97.65;99927.00;5015365;28;20490;-74
2022/01/31 00:41:49;;;;;;;30.95;7.30;;;;;;;1.61;98.20;99901.56;5015264;28;20481;-74
2022/01/31 00:44:29;;;;;;;20.42;6.70;;;;;;;1.59;98.28;99895.44;5015341;28;20513;-74
2022/01/31 00:46:59;;;;;;;17.52;5.93;;;;;;;1.61;98.07;99887.53;5013937;28;20049;-74
2022/01/31 00:51:58;;;;;;;27.77;6.40;;;;;;;1.63;97.46;99884.03;5015218;28;20025;-74
2022/01/31 00:54:23;;;;;;;25.85;6.40;;;;;;;1.62;98.28;99874.41;5015279;28;20026;-74
2022/01/31 00:56:50;;;;;;;29.98;6.00;;;;;;;1.61;98.24;99867.38;5015073;28;20430;-74
2022/01/31 00:59:15;;;;;;;24.17;6.03;;;;;;;1.54;98.96;99847.19;5015025;28;20030;-74
2022/01/31 01:01:40;;;;;;;19.35;5.88;;;;;;;1.64;97.39;99851.56;5014823;28;20062;-74
2022/01/31 01:04:06;;;;;;;21.92;5.75;;;;;;;1.54;98.53;99840.19;5014787;28;20051;-74
2022/01/31 01:06:31;;;;;;;23.48;6.10;;;;;;;1.54;98.62;99824.38;5013368;28;20383;-74
2022/01/31 01:08:57;;;;;;;22.30;6.03;;;;;;;1.59;98.30;99827.00;5013562;28;20021;-74
2022/01/31 01:11:22;;;;;;;27.30;5.45;;;;;;;1.62;98.07;99820.88;5014694;28;20422;-74
2022/01/31 01:13:47;;;;;;;22.67;5.80;;;;;;;1.58;98.74;99809.44;5014597;28;20022;-74
2022/01/31 01:16:12;;;;;;;22.60;5.75;;;;;;;1.58;98.33;99790.16;5014474;28;20434;-74
2022/01/31 01:18:38;;;;;;;22.65;6.05;;;;;;;1.54;98.34;99786.66;5014467;28;20060;-74
2022/01/31 01:21:03;;;;;;;23.52;6.03;;;;;;;1.55;98.45;99777.88;5014667;28;20371;-74
2022/01/31 01:23:28;;;;;;;20.45;5.97;;;;;;;1.54;98.36;99752.44;5012719;28;20036;-74
2022/01/31 01:25:54;;;;;;;26.60;6.15;;;;;;;1.54;98.51;99745.44;5014203;28;20080;-74
2022/01/31 01:28:22;;;;;;;20.40;6.30;;;;;;;1.54;97.96;99734.91;5014311;28;20032;-74
2022/01/31 01:30:48;;;;;;;18.33;5.30;;;;;;;1.56;98.20;99721.75;5014242;28;20080;-74
2022/01/31 01:33:19;;;;;;;20.20;5.88;;;;;;;1.54;98.36;99718.25;5014215;28;20029;-74
2022/01/31 01:35:47;;;;;;;21.65;5.65;;;;;;;1.53;98.80;99695.41;5014490;28;20100;-74
2022/01/31 01:38:15;;;;;;;30.40;5.88;;;;;;;1.55;97.99;99698.91;5014121;28;20083;-74
2022/01/31 01:40:41;;;;;;;19.65;5.40;;;;;;;1.59;98.34;99676.13;5012696;28;20121;-74
2022/01/31 01:43:07;;;;;;;23.80;5.85;;;;;;;1.64;97.58;99679.59;5014090;28;20109;-74
2022/01/31 01:45:33;;;;;;;23.95;5.55;;;;;;;1.66;98.16;99651.53;5014175;28;20425;-74
2022/01/31 01:47:58;;;;;;;27.20;5.90;;;;;;;1.60;98.99;99649.78;5014229;28;20056;-74
2022/01/31 01:50:24;;;;;;;19.42;6.15;;;;;;;1.58;99.29;99641.00;5014140;28;20375;-74
2022/01/31 01:52:51;;;;;;;19.35;5.57;;;;;;;1.66;98.49;99620.81;5012484;28;20102;-74
2022/01/31 01:55:17;;;;;;;23.63;5.55;;;;;;;1.74;98.11;99619.91;5013797;28;20502;-74
2022/01/31 01:57:42;;;;;;;23.20;5.70;;;;;;;1.73;97.94;99626.03;5013760;28;20022;-74
2022/01/31 02:00:15;;;;;;;26.85;6.22;;;;;;;1.71;98.30;99609.38;5013782;28;20038;-73
2022/01/31 02:02:41;;;;;;;17.53;4.97;;;;;;;1.72;98.39;99590.09;5013711;28;20028;-74
2022/01/31 02:05:06;;;;;;;19.05;5.30;;;;;;;1.73;98.23;99571.63;5013596;28;20338;-74
2022/01/31 02:07:33;;;;;;;21.13;5.65;;;;;;;1.68;98.33;99557.63;5013851;28;20021;-74
2022/01/31 02:10:01;;;;;;;23.30;5.40;;;;;;;1.67;98.97;99548.88;5012232;28;20025;-74
2022/01/31 02:12:37;;;;;;;18.70;5.40;;;;;;;1.69;98.36;99543.59;5012198;28;20029;-73
2022/01/31 02:15:03;;;;;;;23.65;6.10;;;;;;;1.69;99.33;99526.94;5013623;28;20121;-74
2022/01/31 02:17:28;;;;;;;18.27;5.53;;;;;;;1.73;98.71;99518.13;5013667;28;20093;-73
2022/01/31 02:19:53;;;;;;;19.08;5.55;;;;;;;1.74;98.56;99504.09;5013618;28;20056;-74
2022/01/31 02:22:18;;;;;;;20.00;6.13;;;;;;;1.74;98.64;99494.44;5011958;28;20072;-74
2022/01/31 02:24:44;;;;;;;19.67;5.60;;;;;;;1.77;98.56;99477.75;5013530;28;20017;-74
2022/01/31 02:27:09;;;;;;;16.38;5.72;;;;;;;1.76;98.44;99473.34;5013148;28;20025;-74
2022/01/31 02:29:34;;;;;;;17.58;6.30;;;;;;;1.74;98.57;99446.16;5013245;28;20104;-74
2022/01/31 02:32:00;;;;;;;14.57;5.13;;;;;;;1.77;98.79;99441.78;5013222;28;20088;-74
2022/01/31 02:34:25;;;;;;;25.73;5.60;;;;;;;1.83;98.62;99425.03;5012880;28;20390;-74
2022/01/31 02:36:50;;;;;;;19.27;4.80;;;;;;;1.78;98.46;99429.47;5013297;28;20048;-74
2022/01/31 02:39:16;;;;;;;18.70;5.35;;;;;;;1.78;98.65;99416.28;5013208;28;20046;-74
2022/01/31 02:41:42;;;;;;;16.70;5.40;;;;;;;1.80;98.90;99406.66;5013073;28;20030;-74
2022/01/31 02:44:14;;;;;;;22.80;6.15;;;;;;;1.82;98.79;99399.59;5011982;28;20048;-74
2022/01/31 02:46:46;;;;;;;17.20;4.85;;;;;;;1.81;98.83;99389.94;5013345;28;20025;-74
2022/01/31 02:49:14;;;;;;;16.75;5.32;;;;;;;1.81;99.39;99383.81;5013244;28;20056;-74
2022/01/31 02:51:45;;;;;;;17.10;4.93;;;;;;;1.83;98.81;99371.53;5013228;28;20045;-74
2022/01/31 02:54:10;;;;;;;18.02;4.75;;;;;;;1.81;99.85;99371.53;5013422;28;20025;-74
2022/01/31 02:56:37;;;;;;;23.48;5.38;;;;;;;1.78;100.00;99358.38;5012041;28;20037;-74
2022/01/31 02:59:02;;;;;;;13.88;4.65;;;;;;;1.78;100.00;99350.50;5011692;28;20478;-74
2022/01/31 03:01:27;;;;;;;17.30;4.88;;;;;;;1.74;100.00;99346.16;5012908;28;20044;-74
2022/01/31 03:03:52;;;;;;;17.48;5.40;;;;;;;1.64;100.00;99340.97;5012913;28;20022;-74
2022/01/31 03:06:18;;;;;;;15.57;5.63;;;;;;;1.64;100.00;99335.72;5013109;28;20030;-74
2022/01/31 03:08:43;;;;;;;13.68;5.40;;;;;;;1.51;100.00;99319.16;5012302;28;20030;-74
2022/01/31 03:11:09;;;;;;;15.13;5.38;;;;;;;1.51;100.00;99318.28;5011548;28;20030;-74
2022/01/31 03:13:34;;;;;;;17.67;5.70;;;;;;;1.43;100.00;99310.44;5012874;28;20105;-75
2022/01/31 03:15:59;;;;;;;23.55;5.43;;;;;;;1.34;100.00;99282.47;5012608;28;20495;-74
2022/01/31 03:18:26;;;;;;;21.67;6.30;;;;;;;1.26;100.00;99279.03;5012714;28;20022;-74
2022/01/31 03:20:52;;;;;;;21.58;7.13;;;;;;;1.12;100.00;99269.47;5012925;28;20026;-74
2022/01/31 03:23:18;;;;;;;20.02;6.53;;;;;;;1.08;100.00;99267.75;5011469;28;20084;-74
2022/01/31 03:25:44;;;;;;;19.20;6.88;;;;;;;0.95;100.00;99251.19;5012659;28;20490;-74
2022/01/31 03:28:09;;;;;;;19.52;7.43;;;;;;;0.84;100.00;99243.38;5012671;28;20057;-75
2022/01/31 03:30:34;;;;;;;19.15;6.88;;;;;;;0.72;100.00;99233.84;5012655;28;20033;-74
2022/01/31 03:33:00;;;;;;;28.70;8.10;;;;;;;0.68;100.00;99222.47;5012550;28;20026;-74
2022/01/31 03:35:27;;;;;;;24.00;7.97;;;;;;;0.66;100.00;99221.59;5012550;28;20092;-74
2022/01/31 03:37:52;;;;;;;19.98;7.78;;;;;;;0.55;100.00;99217.28;5011311;28;20022;-74
2022/01/31 03:40:19;;;;;;;21.05;7.93;;;;;;;0.58;100.00;99199.75;5012516;28;20524;-74
2022/01/31 03:42:45;;;;;;;22.33;8.75;;;;;;;0.41;100.00;99198.97;5012378;28;20034;-74
2022/01/31 03:45:11;;;;;;;20.63;8.80;;;;;;;0.35;100.00;99190.25;5012535;28;20037;-74
2022/01/31 03:47:43;;;;;;;18.40;8.30;;;;;;;0.20;100.00;99184.22;5015600;28;20030;-75
2022/01/31 03:50:10;;;;;;;20.43;8.00;;;;;;;0.11;100.00;99174.63;5016352;28;20483;-75
2022/01/31 03:52:36;;;;;;;19.48;7.78;;;;;;;-0.02;100.00;99152.81;5016318;28;20026;-75
2022/01/31 03:55:01;;;;;;;23.83;9.05;;;;;;;-0.09;100.00;99149.38;5016249;28;20125;-75
2022/01/31 03:57:28;;;;;;;20.67;8.93;;;;;;;-0.23;100.00;99137.16;5014946;28;20040;-75
2022/01/31 03:59:54;;;;;;;19.40;8.60;;;;;;;-0.29;100.00;99123.22;5016488;28;20100;-74
2022/01/31 04:02:19;;;;;;;17.52;8.50;;;;;;;-0.27;100.00;99116.19;5016034;28;20586;-75
2022/01/31 04:04:44;;;;;;;21.92;7.82;;;;;;;-0.41;100.00;99114.50;5014864;28;20018;-75
2022/01/31 04:07:10;;;;;;;15.48;7.40;;;;;;;-0.51;100.00;99105.81;5014846;28;20391;-75
2022/01/31 04:09:35;;;;;;;16.08;7.53;;;;;;;-0.55;100.00;99092.72;5016996;28;20121;-75
2022/01/31 04:12:00;;;;;;;18.42;8.40;;;;;;;-0.65;100.00;99084.88;5016191;28;20022;-74
2022/01/31 04:14:27;;;;;;;14.20;8.32;;;;;;;-0.72;100.00;99083.16;5015999;28;20391;-75
2022/01/31 04:16:55;;;;;;;23.85;9.65;;;;;;;-0.70;100.00;99076.16;5015855;28;20022;-75
2022/01/31 04:19:22;;;;;;;17.88;9.00;;;;;;;-0.72;100.00;99056.97;5014593;28;20026;-75
2022/01/31 04:21:48;;;;;;;15.18;8.88;;;;;;;-0.80;100.00;99054.34;5015808;28;20545;-75
2022/01/31 04:24:19;;;;;;;16.23;7.30;;;;;;;-0.79;100.00;99051.72;5015653;28;20034;-75
2022/01/31 04:26:55;;;;;;;13.65;6.68;;;;;;;-0.82;100.00;99046.47;5014343;28;20137;-75
2022/01/31 04:29:20;;;;;;;11.65;7.10;;;;;;;-0.88;100.00;99030.78;5015932;28;20033;-75
2022/01/31 04:31:49;;;;;;;9.45;6.47;;;;;;;-0.90;100.00;99030.78;5014229;28;20022;-75
2022/01/31 04:34:15;;;;;;;13.00;5.93;;;;;;;-0.81;100.00;99035.13;5015670;28;20112;-75
2022/01/31 04:36:40;;;;;;;10.57;5.72;;;;;;;-0.91;100.00;99015.06;5015668;28;20033;-75
2022/01/31 04:39:06;;;;;;;10.70;5.47;;;;;;;-0.83;100.00;99012.41;5015708;28;20025;-75
2022/01/31 04:41:31;;;;;;;10.00;5.45;;;;;;;-0.89;100.00;99005.44;5014338;28;20025;-75
2022/01/31 04:44:02;;;;;;;9.23;5.28;;;;;;;-0.91;100.00;98999.34;5015785;28;20525;-75
2022/01/31 04:46:29;;;;;;;8.77;4.47;;;;;;;-0.87;100.00;98995.81;5015455;28;20034;-75
2022/01/31 04:48:54;;;;;;;8.32;4.20;;;;;;;-0.79;100.00;98994.03;5014115;28;20110;-75
2022/01/31 04:51:20;;;;;;;6.82;3.92;;;;;;;-0.77;100.00;98980.06;5015337;28;20074;-75
2022/01/31 04:53:45;;;;;;;5.43;3.67;;;;;;;-0.84;100.00;98974.84;5015254;28;20025;-76
2022/01/31 04:56:10;;;;;;;6.30;3.45;;;;;;;-0.80;100.00;98960.84;5015468;28;20538;-74
2022/01/31 04:58:36;;;;;;;6.20;3.80;;;;;;;-0.76;100.00;98950.34;5014645;28;20044;-74
2022/01/31 05:01:01;;;;;;;7.18;3.85;;;;;;;-0.76;100.00;98945.97;5015114;28;20109;-74
2022/01/31 05:03:27;;;;;;;5.97;3.80;;;;;;;-0.68;100.00;98943.31;5015008;28;20100;-74
2022/01/31 05:05:52;;;;;;;8.40;4.93;;;;;;;-0.67;100.00;98937.19;5014986;28;20022;-74
2022/01/31 05:08:23;;;;;;;10.18;5.85;;;;;;;-0.58;100.00;98945.00;5013590;28;20025;-74
2022/01/31 05:10:50;;;;;;;10.88;6.55;;;;;;;-0.58;100.00;98931.00;5014802;28;20030;-73
2022/01/31 05:13:16;;;;;;;14.20;7.25;;;;;;;-0.51;100.00;98929.22;5014835;28;20030;-74
2022/01/31 05:15:43;;;;;;;13.02;7.55;;;;;;;-0.58;100.00;98923.16;5013430;28;20136;-74
2022/01/31 05:18:08;;;;;;;14.77;8.73;;;;;;;-0.65;100.00;98910.97;5014706;28;20382;-74
2022/01/31 05:20:34;;;;;;;17.17;9.45;;;;;;;-0.65;100.00;98922.31;5013271;28;20021;-73
2022/01/31 05:23:00;;;;;;;16.92;8.88;;;;;;;-0.61;100.00;98903.06;5014816;28;20038;-73
2022/01/31 05:25:25;;;;;;;18.80;9.18;;;;;;;-0.55;100.00;98909.16;5013314;28;20018;-74
2022/01/31 05:27:50;;;;;;;17.20;9.82;;;;;;;-0.58;100.00;98896.94;5014490;28;20053;-74
2022/01/31 05:30:16;;;;;;;21.90;11.55;;;;;;;-0.63;100.00;98899.59;5014725;28;20087;-73
2022/01/31 05:32:43;;;;;;;24.67;11.73;;;;;;;-0.57;100.00;98894.28;5014386;28;20045;-74
2022/01/31 05:35:09;;;;;;;22.55;12.57;;;;;;;-0.51;100.00;98897.75;5014441;28;20029;-73
2022/01/31 05:37:35;;;;;;;23.83;11.85;;;;;;;-0.43;100.00;98895.94;5014634;28;20026;-73
2022/01/31 05:40:02;;;;;;;24.92;12.77;;;;;;;-0.50;100.00;98892.50;5014563;28;20030;-73
2022/01/31 05:42:28;;;;;;;22.27;11.60;;;;;;;-0.46;100.00;98883.72;5013233;28;20045;-73
2022/01/31 05:44:53;;;;;;;24.98;12.18;;;;;;;-0.40;100.00;98885.44;5013240;28;20547;-73
2022/01/31 05:47:18;;;;;;;22.35;12.13;;;;;;;-0.41;100.00;98870.56;5014659;28;20022;-73
2022/01/31 05:49:44;;;;;;;25.10;13.20;;;;;;;-0.31;100.00;98873.13;5013297;28;20497;-73
2022/01/31 05:52:10;;;;;;;23.50;13.65;;;;;;;-0.40;100.00;98881.94;5014260;28;20116;-73
2022/01/31 05:54:39;;;;;;;25.63;14.43;;;;;;;-0.40;100.00;98868.81;5014386;28;20029;-73
2022/01/31 05:57:29;;;;;;;33.47;15.68;;;;;;;-0.27;100.00;98861.72;5014335;28;20482;-73
2022/01/31 05:59:54;;;;;;;34.75;16.85;;;;;;;-0.20;100.00;98852.03;5013310;28;20557;-73
2022/01/31 06:02:19;;;;;;;35.15;17.13;;;;;;;-0.10;100.00;98850.22;5014161;28;20561;-72
2022/01/31 06:04:44;;;;;;;32.40;16.35;;;;;;;0.00;100.00;98846.63;5014394;28;20025;-73
2022/01/31 06:07:10;;;;;;;30.90;16.08;;;;;;;0.15;100.00;98844.72;5014291;28;20422;-73
2022/01/31 06:09:37;;;;;;;35.17;17.02;;;;;;;0.10;100.00;98845.63;5013492;28;20022;-73
2022/01/31 06:12:03;;;;;;;32.83;16.73;;;;;;;0.23;100.00;98842.88;5013931;28;20025;-73
2022/01/31 06:14:29;;;;;;;31.77;16.65;;;;;;;0.33;100.00;98848.91;5014290;28;20022;-73
2022/01/31 06:16:55;;;;;;;32.55;15.57;;;;;;;0.43;100.00;98850.53;5068949;22;20107;-80
2022/01/31 06:19:20;;;;;;;33.55;16.33;;;;;;;0.48;100.00;98847.84;5040201;28;20025;-82
2022/01/31 06:21:46;;;;;;;30.15;15.40;;;;;;;0.59;100.00;98844.22;5040234;28;20470;-82
2022/01/31 06:24:13;;;;;;;33.00;16.63;;;;;;;0.69;100.00;98835.34;5054982;28;20024;-81
2022/01/31 06:26:40;;;;;;;33.35;16.20;;;;;;;0.76;100.00;98847.50;5057934;28;20019;-83
2022/01/31 06:29:11;;;;;;;27.75;14.50;;;;;;;0.82;100.00;98843.06;5053106;28;20105;-84
2022/01/31 06:31:36;;;;;;;26.48;15.18;;;;;;;0.81;100.00;98836.03;5049056;28;20022;-84
2022/01/31 06:34:02;;;;;;;26.60;15.07;;;;;;;0.88;100.00;98835.94;5049479;28;20075;-82
2022/01/31 06:36:37;;;;;;;28.30;15.15;;;;;;;0.87;100.00;98838.59;5048743;28;20026;-82
2022/01/31 06:39:06;;;;;;;29.30;15.80;;;;;;;0.90;100.00;98841.19;5050618;28;20025;-83
2022/01/31 06:41:35;;;;;;;27.35;15.45;;;;;;;0.88;100.00;98829.81;5049553;28;20079;-82
2022/01/31 06:44:00;;;;;;;27.15;15.32;;;;;;;0.94;100.00;98829.75;5049900;28;20026;-82
2022/01/31 06:46:26;;;;;;;30.05;15.88;;;;;;;0.93;100.00;98828.00;5049088;28;20052;-83
2022/01/31 06:48:52;;;;;;;29.13;16.15;;;;;;;0.91;100.00;98824.53;5050112;28;20025;-83
2022/01/31 06:52:32;;;;;;;34.33;15.65;;;;;;;0.99;100.00;98817.41;5048211;28;20033;-83
2022/01/31 06:55:43;;;;;;;35.47;16.55;;;;;;;1.05;100.00;98819.06;5031351;28;20394;-82
2022/01/31 06:58:38;;;;;;;;;;;;;;;;;;;;;
2022/01/31 07:01:41;;;;;;;30.05;15.57;;;;;;;1.15;100.00;98809.28;5037785;28;20116;-82
2022/01/31 07:04:04;;;;;;;30.70;14.50;;;;;;;1.27;100.00;98805.59;5038530;28;20090;-81
2022/01/31 07:06:29;;;;;;;29.15;13.80;;;;;;;1.26;100.00;98787.22;5039962;28;20052;-81
2022/01/31 07:08:55;;;;;;;27.52;13.80;;;;;;;1.34;100.00;98795.84;5041811;28;20048;-81
2022/01/31 07:11:26;;;;;;;25.83;12.52;;;;;;;1.37;100.00;98787.88;5042236;28;20079;-82
2022/01/31 07:14:04;;;;;;;27.25;13.70;;;;;;;1.34;100.00;98787.97;5042054;28;20047;-82
2022/01/31 07:16:29;;;;;;;29.65;13.27;;;;;;;1.28;100.00;98785.41;5040731;28;20102;-81
2022/01/31 07:19:09;;;;;;;23.92;12.25;;;;;;;1.40;100.00;98782.59;5041187;28;20091;-82
2022/01/31 07:21:56;;;;;;;22.73;11.20;;;;;;;1.42;100.00;98787.81;5046184;28;20041;-82
2022/01/31 07:24:31;;;;;;;24.70;12.02;;;;;;;1.42;100.00;98782.56;5046289;28;20037;-82
2022/01/31 07:26:57;;;;;;;22.60;11.35;;;;;;;1.48;100.00;98786.84;5045081;28;20032;-82
2022/01/31 07:29:22;;;;;;;32.80;11.55;;;;;;;1.52;100.00;98784.13;5046377;28;20103;-82
2022/01/31 07:31:49;;;;;;;23.15;10.07;;;;;;;1.59;100.00;98782.28;5044349;28;20116;-81
2022/01/31 07:34:17;;;;;;;22.27;10.00;;;;;;;1.60;100.00;98781.38;5044358;28;20036;-82
2022/01/31 07:36:43;;;;;;;22.40;10.52;;;;;;;1.65;100.00;98784.78;5038995;28;20079;-82
2022/01/31 07:39:08;;;;;;;26.73;10.20;;;;;;;1.73;100.00;98786.41;5041484;28;20029;-81
2022/01/31 07:41:34;;;;;;;24.02;10.75;;;;;;;1.72;100.00;98788.19;5042950;28;20044;-81
2022/01/31 07:43:59;;;;;;;20.17;9.52;;;;;;;1.78;100.00;98774.91;5044116;28;20021;-82
2022/01/31 07:46:25;;;;;;;23.10;9.02;;;;;;;1.73;100.00;98770.63;5045676;28;20033;-82
2022/01/31 07:48:52;;;;;;;23.25;8.68;;;;;;;1.77;100.00;98774.94;5044055;28;20025;-82
2022/01/31 07:51:18;;;;;;;20.30;8.60;;;;;;;1.82;100.00;98775.72;5045856;28;20045;-82
2022/01/31 07:53:44;;;;;;;19.05;8.07;;;;;;;1.92;100.00;98772.91;5044293;28;20501;-82
2022/01/31 07:56:10;;;;;;;14.07;7.15;;;;;;;1.93;100.00;98777.31;5044391;28;20029;-82
2022/01/31 07:58:37;;;;;;;16.85;8.45;;;;;;;1.93;100.00;98778.19;5044049;28;20110;-81
2022/01/31 08:01:04;;;;;;;16.15;7.85;;;;;;;2.05;100.00;98781.44;5045369;28;20037;-82
2022/01/31 08:03:29;;;;;;;14.15;6.85;;;;;;;1.96;100.00;98770.19;5047930;28;20048;-82
2022/01/31 08:05:54;;;;;;;14.00;5.45;;;;;;;2.00;100.00;98768.38;5050881;28;20025;-82
2022/01/31 08:08:20;;;;;;;11.90;4.53;;;;;;;2.04;100.00;98771.81;5052293;28;20025;-83
2022/01/31 08:10:45;;;;;;;6.57;3.17;;;;;;;2.05;100.00;98777.06;5045528;28;20032;-81
2022/01/31 08:13:11;;;;;;;10.77;3.92;;;;;;;2.00;100.00;98774.53;5038828;28;20164;-81
2022/01/31 08:15:48;;;;;;;8.18;3.38;;;;;;;1.98;100.00;98781.59;5040811;28;20029;-81
2022/01/31 08:18:15;;;;;;;7.35;2.80;;;;;;;1.94;100.00;98772.00;5043098;28;20013;-81
2022/01/31 08:20:40;;;;;;;5.68;2.42;;;;;;;1.92;100.00;98773.78;5044299;28;20029;-82
2022/01/31 08:23:07;;;;;;;7.63;2.25;;;;;;;1.82;100.00;98778.38;5044044;28;20021;-82
2022/01/31 08:25:36;;;;;;;5.53;2.40;;;;;;;1.87;100.00;98780.91;5045913;28;20052;-81
2022/01/31 08:28:06;;;;;;;5.85;1.80;;;;;;;1.83;100.00;98777.44;5045615;28;20040;-81
2022/01/31 08:30:40;;;;;;;4.28;1.55;;;;;;;1.81;100.00;98779.25;5045258;28;20029;-83
2022/01/31 08:33:13;;;;;;;4.80;2.08;;;;;;;1.73;100.00;98765.34;5043806;28;20104;-82
2022/01/31 08:35:48;;;;;;;3.88;1.73;;;;;;;1.72;100.00;98768.91;5044899;28;20021;-82
2022/01/31 08:38:16;;;;;;;5.28;1.83;;;;;;;1.67;100.00;98767.22;5043294;28;20091;-82
2022/01/31 08:40:41;;;;;;;5.68;1.88;;;;;;;1.78;100.00;98763.50;5048319;28;20028;-82
2022/01/31 08:43:07;;;;;;;4.75;2.28;;;;;;;1.78;100.00;98768.78;5048641;28;20018;-82
2022/01/31 08:45:34;;;;;;;7.53;3.15;;;;;;;1.83;100.00;98764.28;5048117;28;20033;-82
2022/01/31 08:48:00;;;;;;;5.40;2.30;;;;;;;1.73;100.00;98754.81;5041141;28;20075;-81
2022/01/31 08:50:25;;;;;;;5.80;2.13;;;;;;;1.76;100.00;98760.03;5038581;28;20025;-81
2022/01/31 08:52:50;;;;;;;5.38;2.60;;;;;;;1.76;100.00;98749.50;5039056;28;20489;-81
2022/01/31 08:55:17;;;;;;;4.80;2.45;;;;;;;1.83;100.00;98751.13;5040749;28;20033;-82
2022/01/31 08:57:42;;;;;;;6.70;2.83;;;;;;;1.83;100.00;98745.88;5042442;28;20486;-81
2022/01/31 09:00:08;;;;;;;10.07;3.10;;;;;;;1.95;100.00;98743.91;5045428;28;20029;-82
2022/01/31 09:02:39;;;;;;;7.05;2.85;;;;;;;1.96;100.00;98745.66;5045392;28;20029;-82
2022/01/31 09:05:06;;;;;;;3.78;2.53;;;;;;;1.92;100.00;98736.94;5045321;28;20056;-82
2022/01/31 09:07:31;;;;;;;9.15;3.20;;;;;;;1.96;100.00;98735.13;5043933;28;20048;-82
2022/01/31 09:09:58;;;;;;;9.50;2.97;;;;;;;2.00;100.00;98731.53;5044115;28;20112;-82
2022/01/31 09:12:28;;;;;;;6.55;3.40;;;;;;;2.10;100.00;98734.84;5042581;28;20026;-81
2022/01/31 09:14:54;;;;;;;8.15;4.60;;;;;;;2.07;100.00;98730.50;5042887;28;20033;-80
2022/01/31 09:17:22;;;;;;;7.97;3.22;;;;;;;2.18;100.00;98716.25;5044382;28;20453;-82
2022/01/31 09:19:47;;;;;;;6.53;3.45;;;;;;;2.22;100.00;98723.16;5050508;28;20021;-82
2022/01/31 09:22:12;;;;;;;6.18;3.22;;;;;;;2.19;100.00;98721.47;5050843;28;20026;-81
2022/01/31 09:24:40;;;;;;;5.53;3.22;;;;;;;2.32;100.00;98727.34;5040141;28;20059;-81
2022/01/31 09:27:06;;;;;;;5.43;2.85;;;;;;;2.33;100.00;98731.72;5038114;28;20025;-82
2022/01/31 09:29:32;;;;;;;7.25;3.10;;;;;;;2.40;100.00;98734.22;5038017;28;20429;-82
2022/01/31 09:31:59;;;;;;;5.57;2.60;;;;;;;2.38;100.00;98749.19;5041154;28;20017;-81
2022/01/31 09:34:24;;;;;;;7.18;3.05;;;;;;;2.45;100.00;98750.78;5042327;28;20025;-82
2022/01/31 09:36:50;;;;;;;6.97;3.15;;;;;;;2.44;100.00;98757.84;5041030;28;20017;-81
2022/01/31 09:39:15;;;;;;;4.93;3.10;;;;;;;2.36;100.00;98753.63;5043958;28;20026;-81
2022/01/31 09:41:44;;;;;;;4.53;2.00;;;;;;;2.38;100.00;98752.69;5041978;28;20022;-81
2022/01/31 09:44:17;;;;;;;3.13;1.30;;;;;;;2.34;100.00;98767.72;5042471;28;20029;-81
2022/01/31 09:46:47;;;;;;;2.47;1.08;;;;;;;2.34;100.00;98759.81;5042179;28;20418;-82
2022/01/31 09:49:14;;;;;;;2.30;1.20;;;;;;;2.37;100.00;98768.53;5042033;28;20109;-81
2022/01/31 09:51:40;;;;;;;3.78;1.02;;;;;;;2.31;100.00;98766.91;5043603;28;20069;-82
2022/01/31 09:54:06;;;;;;;2.28;0.90;;;;;;;2.39;100.00;98769.38;5044424;28;20032;-81
2022/01/31 09:56:37;;;;;;;4.38;1.00;;;;;;;2.36;100.00;98774.69;5041996;28;20456;-82
2022/01/31 09:59:05;;;;;;;2.33;0.90;;;;;;;2.43;100.00;98778.94;5043590;28;20471;-82
2022/01/31 10:01:34;;;;;;;1.50;0.95;;;;;;;2.37;100.00;98785.19;5035732;28;20052;-82
2022/01/31 10:04:19;;;;;;;1.55;0.82;;;;;;;2.49;100.00;98776.19;5038054;28;20028;-81
2022/01/31 10:06:50;;;;;;;2.90;1.10;;;;;;;2.56;100.00;98777.78;5038604;28;20119;-82
2022/01/31 10:09:17;;;;;;;1.98;1.10;;;;;;;2.53;100.00;98780.47;5039789;28;20022;-82
2022/01/31 10:12:04;;;;;;;3.13;0.80;;;;;;;2.51;100.00;98773.50;5041312;28;20112;-82
2022/01/31 10:17:38;;;;;;;1.52;0.80;;;;;;;2.42;100.00;98785.13;5044558;28;20076;-81
2022/01/31 10:20:08;;;;;;;3.58;1.20;;;;;;;2.46;100.00;98781.50;5043511;28;20025;-81
2022/01/31 10:22:36;;;;;;;3.03;1.13;;;;;;;2.50;100.00;98791.09;5041812;28;20068;-81
2022/01/31 10:25:07;;;;;;;2.00;1.10;;;;;;;2.39;100.00;98791.31;5042468;28;20044;-82
2022/01/31 10:27:34;;;;;;;3.47;1.30;;;;;;;2.48;100.00;98790.25;5044908;28;20018;-82
2022/01/31 10:30:10;;;;;;;3.67;1.10;;;;;;;2.49;100.00;98784.09;5042605;28;20023;-81
2022/01/31 10:32:37;;;;;;;3.28;1.10;;;;;;;2.47;100.00;98783.25;5046330;28;20048;-83
2022/01/31 10:35:13;;;;;;;1.75;0.85;;;;;;;2.40;100.00;98789.53;5050218;28;20025;-82
2022/01/31 10:37:43;;;;;;;2.40;1.05;;;;;;;2.49;100.00;98792.00;5037054;28;20022;-80
2022/01/31 10:54:25;;;;;;;2.38;1.33;;;;;;;2.66;100.00;98819.75;5047875;28;20071;-81
2022/01/31 10:56:55;;;;;;;2.92;1.20;;;;;;;2.68;100.00;98821.44;5047542;28;20085;-82
2022/01/31 10:59:42;;;;;;;3.40;1.40;;;;;;;2.71;100.00;98828.44;5048880;28;20028;-82
2022/01/31 11:02:15;;;;;;;4.50;1.85;;;;;;;2.76;100.00;98829.19;5055968;28;20033;-82
2022/01/31 11:04:43;;;;;;;3.55;1.85;;;;;;;2.72;100.00;98834.56;5055063;28;20036;-82
2022/01/31 11:07:18;;;;;;;4.70;1.90;;;;;;;2.78;100.00;98822.13;5051374;28;20033;-82
2022/01/31 11:09:45;;;;;;;4.65;1.95;;;;;;;2.96;100.00;98825.28;5049580;28;20025;-83
2022/01/31 11:12:12;;;;;;;3.60;1.80;;;;;;;3.14;100.00;98825.75;5048919;28;20028;-82
2022/01/31 11:14:40;;;;;;;4.03;1.42;;;;;;;3.28;100.00;98827.19;5035134;28;20090;-81
2022/01/31 11:17:11;;;;;;;4.45;2.00;;;;;;;3.37;100.00;98826.09;5035677;28;20394;-81
2022/01/31 11:19:38;;;;;;;4.22;1.90;;;;;;;3.30;100.00;98823.59;5038049;28;20086;-81
2022/01/31 11:22:10;;;;;;;3.42;1.40;;;;;;;3.66;100.00;98825.38;5044609;28;20085;-82
2022/01/31 11:24:58;;;;;;;2.58;1.38;;;;;;;3.85;100.00;98832.84;5048862;28;20048;-82
2022/01/31 11:27:25;;;;;;;2.20;0.90;;;;;;;3.81;100.00;98841.75;5047796;28;20018;-82
2022/01/31 11:29:55;;;;;;;2.38;1.20;;;;;;;3.75;100.00;98844.53;5047898;28;20045;-82
2022/01/31 11:32:22;;;;;;;2.03;1.13;;;;;;;3.79;100.00;98832.97;5042336;28;20017;-82
2022/01/31 11:34:48;;;;;;;2.45;1.13;;;;;;;3.73;100.00;98843.72;5042930;28;20434;-80
2022/01/31 11:37:16;;;;;;;2.38;1.38;;;;;;;3.67;100.00;98844.72;5043126;28;20021;-82
2022/01/31 11:39:44;;;;;;;3.15;1.58;;;;;;;3.66;100.00;98854.41;5041925;28;20577;-81
2022/01/31 11:42:10;;;;;;;3.38;1.40;;;;;;;3.68;100.00;98868.47;5042903;28;20462;-81
2022/01/31 11:44:57;;;;;;;2.05;1.27;;;;;;;3.64;100.00;98865.91;5044659;28;20132;-81
2022/01/31 11:47:25;;;;;;;3.13;1.73;;;;;;;3.53;100.00;98882.03;5044807;28;20071;-81
2022/01/31 11:50:04;;;;;;;4.85;1.90;;;;;;;3.44;100.00;98878.72;5040106;28;20032;-80